Strona główna
METAR-TAF:

METAR-TAF

Lotnisko :

Bahía Blanca, Argentyna

Szerokość geograficzna: 38-44S, Długość geograficzna: 062-10W, wysokość: 75 m

Aktualna obserwacja pogody

Raport powstał 1 godzina i 4 minut temu, godzina 05:40 UTC
Wiatr 13 kt od południe
Temperatura 13°C
Wilgotność 82%
Ciśnienie 1006 hPa
Widzialność 10 km lub więcej
Rozproszone chmury na wysokości 4500 ft, Cumulonimbus.
Zachmurzenie całkowite na wysokości 5600 ft
burza, (słaby

METAR: SAZB 170540Z 18013KT 9999 -TS SCT045CB OVC056 13/10 Q1006 RELG

czas: 03:44 (06:44 UTC)


TAF: brakujący

Obserwacja i prognoza pogody dla ponad 4000 lotnisk (raport METAR i TAF).

Dostępne stacje oznaczono żółtymi i czerwonymi punktami na mapie.

Najedź kursorem aby zobaczyć nazwę stacji.

Kliknij aby zobaczyć obserwacje i prognozy pogody.

Aby zmienić mapę: kliknij na zielony przycisk z czarnym krzyżykiem, aby powiększyć; na zielony przycisk z myślnikiem, aby pomniejszyć; na zielone strzałki, aby przejść do map sąsiednich.


METAR-TAF: